createdAt,value
2022-12-06T00:01:41.527Z,20.17
2022-12-06T00:04:14.238Z,18.80
2022-12-06T00:06:47.866Z,19.43
2022-12-06T00:09:20.152Z,19.43
2022-12-06T00:11:49.075Z,19.30
2022-12-06T00:14:18.571Z,18.53
2022-12-06T00:16:47.729Z,20.30
2022-12-06T00:19:22.744Z,19.47
2022-12-06T00:21:51.511Z,20.73
2022-12-06T00:24:23.288Z,20.47
2022-12-06T00:26:53.024Z,21.10
2022-12-06T00:29:24.134Z,19.90
2022-12-06T00:31:52.897Z,20.83
2022-12-06T00:34:22.723Z,19.43
2022-12-06T00:36:51.457Z,21.37
2022-12-06T00:39:20.613Z,19.27
2022-12-06T00:41:49.152Z,20.93
2022-12-06T00:44:17.655Z,19.93
2022-12-06T00:46:46.108Z,20.93
2022-12-06T00:49:15.175Z,20.03
2022-12-06T00:51:45.032Z,21.10
2022-12-06T00:54:16.573Z,20.30
2022-12-06T00:56:45.466Z,21.67
2022-12-06T00:59:14.221Z,20.73
2022-12-06T01:01:43.326Z,20.90
2022-12-06T01:04:11.884Z,20.37
2022-12-06T01:06:40.473Z,20.80
2022-12-06T01:09:12.253Z,19.70
2022-12-06T01:11:40.890Z,20.17
2022-12-06T01:14:09.439Z,19.17
2022-12-06T01:16:37.809Z,18.67
2022-12-06T01:19:07.353Z,20.17
2022-12-06T01:21:35.928Z,18.97
2022-12-06T01:24:04.431Z,20.00
2022-12-06T01:26:35.939Z,20.27
2022-12-06T01:29:05.504Z,19.00
2022-12-06T01:31:38.742Z,20.33
2022-12-06T01:34:15.029Z,19.67
2022-12-06T01:36:43.664Z,18.90
2022-12-06T01:39:13.736Z,20.90
2022-12-06T01:41:43.559Z,20.23
2022-12-06T01:44:45.627Z,19.57
2022-12-06T01:47:20.706Z,19.83
2022-12-06T01:49:54.770Z,19.30
2022-12-06T01:52:31.533Z,18.63
2022-12-06T01:55:02.376Z,19.10
2022-12-06T01:57:32.459Z,19.27
2022-12-06T02:00:01.720Z,20.10
2022-12-06T02:02:39.168Z,18.77
2022-12-06T02:05:09.560Z,18.57
2022-12-06T02:07:39.656Z,18.33
2022-12-06T02:10:09.400Z,18.90
2022-12-06T02:12:39.077Z,19.30
2022-12-06T02:15:09.002Z,19.43
2022-12-06T02:17:46.686Z,18.57
2022-12-06T02:20:31.857Z,18.47
2022-12-06T02:23:50.848Z,18.87
2022-12-06T02:26:28.731Z,18.70
2022-12-06T02:29:34.076Z,19.40
2022-12-06T02:32:11.940Z,19.50
2022-12-06T02:34:49.729Z,20.00
2022-12-06T02:37:27.065Z,18.40
2022-12-06T02:40:04.553Z,20.10
2022-12-06T02:42:41.445Z,21.50
2022-12-06T02:45:16.099Z,20.50
2022-12-06T02:47:49.283Z,21.43
2022-12-06T02:50:22.571Z,20.57
2022-12-06T02:52:55.430Z,20.30
2022-12-06T02:55:26.122Z,20.17
2022-12-06T02:57:56.969Z,20.93
2022-12-06T03:00:38.291Z,21.17
2022-12-06T03:03:30.016Z,20.70
2022-12-06T03:06:47.157Z,20.97
2022-12-06T03:09:28.295Z,20.70
2022-12-06T03:12:05.277Z,18.43
2022-12-06T03:14:46.718Z,20.00
2022-12-06T03:17:25.576Z,20.03
2022-12-06T03:20:04.644Z,20.53
2022-12-06T03:22:39.979Z,17.77
2022-12-06T03:25:11.500Z,20.80
2022-12-06T03:27:43.488Z,19.87
2022-12-06T03:30:14.765Z,19.77
2022-12-06T03:32:47.135Z,20.07
2022-12-06T03:35:22.953Z,18.87
2022-12-06T03:38:00.126Z,19.87
2022-12-06T03:40:33.608Z,18.33
2022-12-06T03:43:02.268Z,18.83
2022-12-06T03:45:40.715Z,20.30
2022-12-06T03:48:15.914Z,18.87
2022-12-06T03:50:58.336Z,19.77
2022-12-06T03:53:27.625Z,19.43
2022-12-06T03:55:56.283Z,18.93
2022-12-06T03:58:24.652Z,20.67
2022-12-06T04:00:53.012Z,19.60
2022-12-06T04:03:21.445Z,20.33
2022-12-06T04:05:51.547Z,19.27
2022-12-06T04:08:20.237Z,19.03
2022-12-06T04:10:48.633Z,20.67
2022-12-06T04:13:19.781Z,19.60
2022-12-06T04:15:48.512Z,20.47
2022-12-06T04:18:18.641Z,18.87
2022-12-06T04:21:08.849Z,18.87
2022-12-06T04:23:41.444Z,19.50
2022-12-06T04:26:12.362Z,19.73
2022-12-06T04:28:58.652Z,19.57
2022-12-06T04:31:45.303Z,20.77
2022-12-06T04:34:31.670Z,19.40
2022-12-06T04:37:19.393Z,19.60
2022-12-06T04:39:47.920Z,21.00
2022-12-06T04:42:34.505Z,21.23
2022-12-06T04:45:03.327Z,21.10
2022-12-06T04:47:31.662Z,21.43
2022-12-06T04:50:00.242Z,20.27
2022-12-06T04:52:35.255Z,20.27
2022-12-06T04:55:05.157Z,20.93
2022-12-06T04:57:33.697Z,21.37
2022-12-06T05:00:02.288Z,22.37
2022-12-06T05:02:30.863Z,22.03
2022-12-06T05:04:59.451Z,20.37
2022-12-06T05:07:29.125Z,21.77
2022-12-06T05:09:57.771Z,20.23
2022-12-06T05:12:26.279Z,22.10
2022-12-06T05:14:54.895Z,22.53
2022-12-06T05:17:23.200Z,22.70
2022-12-06T05:19:51.808Z,21.03
2022-12-06T05:22:20.144Z,21.60
2022-12-06T05:24:49.867Z,20.70
2022-12-06T05:27:18.144Z,21.40
2022-12-06T05:29:46.439Z,20.77
2022-12-06T05:32:14.762Z,20.93
2022-12-06T05:34:43.110Z,20.77
2022-12-06T05:37:11.860Z,21.23
2022-12-06T05:39:40.466Z,22.40
2022-12-06T05:42:10.413Z,21.37
2022-12-06T05:44:38.763Z,21.80
2022-12-06T05:47:07.096Z,21.37
2022-12-06T05:49:35.382Z,21.87
2022-12-06T05:52:04.324Z,21.13
2022-12-06T05:54:32.803Z,20.67
2022-12-06T05:57:01.126Z,22.10
2022-12-06T05:59:31.067Z,21.87
2022-12-06T06:01:59.428Z,22.43
2022-12-06T06:04:27.764Z,21.77
2022-12-06T06:06:56.040Z,21.70
2022-12-06T06:09:27.193Z,22.13
2022-12-06T06:11:56.222Z,24.40
2022-12-06T06:14:24.806Z,22.43
2022-12-06T06:16:54.503Z,22.47
2022-12-06T06:19:24.468Z,22.97
2022-12-06T06:21:53.082Z,23.20
2022-12-06T06:24:21.348Z,20.03
2022-12-06T06:26:49.644Z,23.27
2022-12-06T06:29:18.019Z,28.87
2022-12-06T06:31:46.501Z,27.27
2022-12-06T06:34:16.271Z,27.60
2022-12-06T06:36:46.132Z,27.10
2022-12-06T06:39:15.239Z,25.83
2022-12-06T06:41:43.536Z,25.83
2022-12-06T06:44:12.415Z,23.77
2022-12-06T06:46:41.151Z,24.33
2022-12-06T06:49:09.733Z,23.90
2022-12-06T06:51:39.431Z,24.10
2022-12-06T06:54:08.055Z,25.97
2022-12-06T06:56:36.408Z,26.33
2022-12-06T06:59:05.082Z,28.67
2022-12-06T07:01:33.775Z,27.43
2022-12-06T07:04:02.712Z,28.97
2022-12-06T07:06:31.353Z,28.97
2022-12-06T07:09:01.109Z,28.20
2022-12-06T07:11:29.437Z,25.77
2022-12-06T07:13:57.823Z,22.57
2022-12-06T07:16:26.138Z,22.13
2022-12-06T07:18:54.465Z,22.17
2022-12-06T07:21:23.476Z,22.03
2022-12-06T07:23:52.466Z,20.90
2022-12-06T07:26:25.545Z,21.90
2022-12-06T07:28:54.217Z,20.60
2022-12-06T07:31:25.401Z,21.57
2022-12-06T07:33:56.108Z,20.70
2022-12-06T07:36:25.641Z,21.43
2022-12-06T07:38:56.816Z,23.03
2022-12-06T07:41:47.435Z,21.47
2022-12-06T07:44:58.294Z,21.30
2022-12-06T07:47:35.184Z,21.00
2022-12-06T07:50:04.771Z,23.63
2022-12-06T07:52:35.226Z,22.13
2022-12-06T07:55:05.157Z,22.07
2022-12-06T07:57:40.040Z,24.80
2022-12-06T08:00:15.349Z,20.63
2022-12-06T08:02:44.469Z,20.37
2022-12-06T08:05:13.687Z,19.43
2022-12-06T08:07:42.068Z,20.83
2022-12-06T08:10:10.660Z,21.27
2022-12-06T08:12:40.746Z,22.83
2022-12-06T08:15:13.037Z,25.70
2022-12-06T08:17:42.905Z,22.80
2022-12-06T08:20:12.899Z,20.87
2022-12-06T08:22:41.507Z,22.27
2022-12-06T08:25:11.428Z,20.50
2022-12-06T08:27:41.445Z,20.00
2022-12-06T08:30:10.501Z,19.97
2022-12-06T08:32:39.128Z,19.07
2022-12-06T08:35:08.325Z,19.33
2022-12-06T08:37:36.949Z,20.00
2022-12-06T08:40:06.595Z,19.00
2022-12-06T08:42:35.207Z,18.97
2022-12-06T08:45:05.956Z,19.03
2022-12-06T08:47:34.268Z,19.50
2022-12-06T08:50:02.936Z,20.10
2022-12-06T08:52:31.724Z,20.17
2022-12-06T08:55:00.366Z,20.17
2022-12-06T08:57:28.685Z,21.73
2022-12-06T08:59:57.004Z,24.97
2022-12-06T09:02:26.664Z,20.70
2022-12-06T09:04:55.140Z,20.33
2022-12-06T09:07:26.285Z,21.80
2022-12-06T09:09:55.486Z,21.57
2022-12-06T09:12:24.602Z,22.20
2022-12-06T09:14:53.291Z,19.93
2022-12-06T09:17:21.574Z,24.90
2022-12-06T09:19:51.207Z,24.37
2022-12-06T09:22:19.587Z,23.53
2022-12-06T09:24:47.855Z,23.57
2022-12-06T09:27:16.330Z,23.57
2022-12-06T09:29:44.905Z,24.03
2022-12-06T09:32:13.263Z,22.83
2022-12-06T09:34:41.560Z,21.87
2022-12-06T09:37:14.211Z,22.30
2022-12-06T09:39:45.518Z,22.50
2022-12-06T09:42:36.758Z,19.53
2022-12-06T09:45:31.629Z,18.73
2022-12-06T09:48:28.257Z,18.73
2022-12-06T09:51:19.518Z,17.90
2022-12-06T09:54:09.855Z,17.90
2022-12-06T09:56:43.941Z,18.53
2022-12-06T09:59:27.156Z,19.60
2022-12-06T10:02:15.322Z,19.73
2022-12-06T10:05:06.027Z,17.10
2022-12-06T10:07:49.363Z,16.00
2022-12-06T10:10:34.566Z,16.93
2022-12-06T10:13:14.144Z,15.93
2022-12-06T10:15:58.522Z,16.80
2022-12-06T10:19:00.666Z,16.43
2022-12-06T10:21:46.306Z,16.03
2022-12-06T10:24:29.188Z,15.93
2022-12-06T10:27:10.958Z,15.80
2022-12-06T10:29:56.178Z,15.03
2022-12-06T10:32:47.477Z,15.63
2022-12-06T10:35:25.127Z,15.47
2022-12-06T10:38:10.371Z,16.10
2022-12-06T10:40:51.920Z,16.53
2022-12-06T10:43:30.143Z,15.80
2022-12-06T10:46:28.401Z,16.03
2022-12-06T10:49:03.843Z,15.90
2022-12-06T10:51:41.186Z,16.63
2022-12-06T10:54:24.781Z,16.33
2022-12-06T10:56:58.338Z,17.13
2022-12-06T10:59:37.639Z,16.03
2022-12-06T11:02:26.608Z,16.63
2022-12-06T11:05:02.296Z,16.97
2022-12-06T11:07:41.192Z,15.40
2022-12-06T11:10:21.431Z,16.23
2022-12-06T11:12:57.728Z,16.17
2022-12-06T11:15:33.693Z,16.63
2022-12-06T11:18:11.618Z,16.20
2022-12-06T11:20:46.980Z,17.60
2022-12-06T11:23:27.017Z,16.97
2022-12-06T11:26:12.494Z,16.47
2022-12-06T11:28:44.029Z,15.33
2022-12-06T11:31:27.059Z,15.00
2022-12-06T11:33:56.104Z,14.87
2022-12-06T11:36:28.572Z,15.77
2022-12-06T11:38:57.259Z,16.30
2022-12-06T11:41:32.432Z,15.83
2022-12-06T11:44:01.047Z,15.03
2022-12-06T11:46:31.219Z,15.50
2022-12-06T11:49:16.568Z,16.47
2022-12-06T11:51:44.912Z,15.37
2022-12-06T11:54:26.020Z,15.50
2022-12-06T11:56:58.181Z,16.90
2022-12-06T11:59:29.526Z,16.87
2022-12-06T12:02:02.833Z,15.90
2022-12-06T12:04:39.986Z,15.10
2022-12-06T12:07:17.942Z,14.63
2022-12-06T12:09:53.017Z,14.57
2022-12-06T12:12:24.644Z,16.53
2022-12-06T12:14:59.337Z,16.87
2022-12-06T12:17:33.321Z,15.77
2022-12-06T12:20:07.470Z,16.60
2022-12-06T12:22:39.923Z,18.70
2022-12-06T12:25:25.764Z,16.70
2022-12-06T12:27:55.813Z,17.77
2022-12-06T12:30:34.448Z,22.80
2022-12-06T12:33:23.900Z,19.03
2022-12-06T12:36:15.406Z,16.73
2022-12-06T12:38:53.238Z,15.57
2022-12-06T12:41:29.054Z,17.17
2022-12-06T12:44:28.921Z,17.20
2022-12-06T12:46:59.515Z,18.90
2022-12-06T12:49:36.633Z,18.77
2022-12-06T12:52:29.244Z,17.63
2022-12-06T12:55:14.875Z,18.97
2022-12-06T12:57:45.593Z,20.37
2022-12-06T13:00:17.235Z,20.33
2022-12-06T13:02:52.081Z,21.50
2022-12-06T13:05:33.386Z,22.27
2022-12-06T13:08:20.198Z,21.97
2022-12-06T13:10:58.609Z,20.43
2022-12-06T13:13:35.406Z,18.13
2022-12-06T13:16:12.853Z,19.63
2022-12-06T13:18:57.330Z,17.70
2022-12-06T13:21:36.211Z,17.77
2022-12-06T13:24:16.035Z,18.00
2022-12-06T13:26:49.921Z,17.10
2022-12-06T13:29:30.069Z,17.20
2022-12-06T13:32:06.148Z,16.00
2022-12-06T13:34:41.132Z,15.97
2022-12-06T13:37:35.346Z,15.13
2022-12-06T13:40:06.015Z,15.53
2022-12-06T13:42:47.289Z,16.33
2022-12-06T13:45:41.476Z,14.40
2022-12-06T13:48:39.080Z,15.50
2022-12-06T13:51:13.376Z,15.27
2022-12-06T13:54:30.242Z,16.33
2022-12-06T13:57:01.044Z,16.60
2022-12-06T13:59:38.555Z,15.60
2022-12-06T14:02:51.824Z,15.47
2022-12-06T14:08:39.224Z,15.20
2022-12-06T14:11:23.540Z,15.73
2022-12-06T14:14:08.716Z,15.00
2022-12-06T14:16:41.329Z,16.00
2022-12-06T14:19:21.041Z,16.20
2022-12-06T14:21:56.020Z,14.70
2022-12-06T14:24:34.404Z,16.03
2022-12-06T14:27:13.795Z,16.37
2022-12-06T14:29:43.460Z,16.80
2022-12-06T14:32:12.728Z,16.57
2022-12-06T14:34:41.222Z,15.67
2022-12-06T14:37:21.802Z,16.20
2022-12-06T14:39:53.983Z,15.63
2022-12-06T14:42:41.320Z,15.07
2022-12-06T14:45:15.347Z,14.83
2022-12-06T14:47:46.138Z,16.03
2022-12-06T14:50:40.958Z,16.23
2022-12-06T14:53:14.935Z,15.53
2022-12-06T14:55:56.276Z,17.00
2022-12-06T14:58:30.622Z,16.63
2022-12-06T15:01:03.967Z,17.77
2022-12-06T15:03:34.328Z,17.67
2022-12-06T15:06:17.215Z,17.50
2022-12-06T15:08:53.523Z,16.60
2022-12-06T15:11:54.577Z,17.50
2022-12-06T15:14:26.710Z,15.47
2022-12-06T15:17:03.211Z,21.73
2022-12-06T15:19:35.765Z,24.23
2022-12-06T15:22:05.406Z,22.63
2022-12-06T15:24:33.746Z,25.93
2022-12-06T15:27:02.453Z,19.13
2022-12-06T15:29:32.715Z,18.60
2022-12-06T15:32:01.096Z,20.47
2022-12-06T15:34:34.843Z,20.47
2022-12-06T15:37:37.095Z,17.77
2022-12-06T15:39:52.518Z,17.50
2022-12-06T15:42:25.289Z,17.57
2022-12-06T15:44:55.354Z,16.70
2022-12-06T15:47:24.056Z,17.20
2022-12-06T15:49:53.929Z,16.60
2022-12-06T15:52:24.346Z,16.87
2022-12-06T15:54:52.814Z,16.80
2022-12-06T15:57:21.152Z,16.53
2022-12-06T15:59:49.423Z,15.27
2022-12-06T16:02:20.637Z,17.70
2022-12-06T16:04:50.971Z,25.60
2022-12-06T16:07:19.686Z,18.97
2022-12-06T16:09:48.611Z,16.03
2022-12-06T16:12:17.333Z,16.13
2022-12-06T16:14:45.647Z,16.67
2022-12-06T16:17:13.988Z,15.93
2022-12-06T16:20:00.985Z,14.93
2022-12-06T16:22:46.885Z,16.07
2022-12-06T16:25:15.264Z,16.93
2022-12-06T16:27:43.891Z,17.37
2022-12-06T16:30:13.295Z,19.50
2022-12-06T16:32:41.926Z,19.37
2022-12-06T16:35:11.547Z,18.43
2022-12-06T16:37:40.525Z,17.23
2022-12-06T16:40:20.650Z,17.23
2022-12-06T16:42:48.961Z,17.57
2022-12-06T16:45:18.363Z,18.50
2022-12-06T16:47:47.494Z,20.23
2022-12-06T16:50:24.545Z,17.47
2022-12-06T16:52:53.308Z,16.57
2022-12-06T16:55:22.007Z,16.77
2022-12-06T16:57:51.365Z,17.70
2022-12-06T17:00:20.341Z,17.10
2022-12-06T17:02:48.820Z,16.03
2022-12-06T17:05:21.659Z,11.30
2022-12-06T17:07:50.000Z,10.63
2022-12-06T17:10:20.282Z,10.00
2022-12-06T17:12:50.082Z,9.17
2022-12-06T17:15:21.794Z,8.70
2022-12-06T17:17:50.619Z,11.30
2022-12-06T17:20:21.217Z,10.27
2022-12-06T17:22:49.713Z,10.47
2022-12-06T17:25:18.367Z,9.03
2022-12-06T17:27:46.802Z,9.27
2022-12-06T17:30:18.834Z,9.77
2022-12-06T17:32:48.488Z,9.97
2022-12-06T17:35:17.390Z,10.67
2022-12-06T17:37:47.050Z,10.57
2022-12-06T17:40:15.969Z,9.63
2022-12-06T17:43:01.523Z,10.47
2022-12-06T17:45:29.948Z,9.47
2022-12-06T17:48:01.202Z,10.07
2022-12-06T17:50:29.514Z,9.73
2022-12-06T17:52:59.144Z,10.27
2022-12-06T17:55:27.774Z,9.63
2022-12-06T17:57:56.419Z,11.13
2022-12-06T18:00:25.259Z,11.30
2022-12-06T18:02:54.026Z,10.10
2022-12-06T18:05:22.364Z,10.30
2022-12-06T18:07:52.102Z,10.37
2022-12-06T18:10:21.933Z,10.77
2022-12-06T18:12:50.258Z,10.90
2022-12-06T18:15:36.309Z,10.70
2022-12-06T18:18:05.238Z,11.13
2022-12-06T18:20:33.508Z,10.07
2022-12-06T18:23:02.175Z,11.60
2022-12-06T18:25:31.861Z,10.63
2022-12-06T18:28:00.200Z,9.53
2022-12-06T18:30:28.562Z,9.70
2022-12-06T18:32:56.927Z,10.30
2022-12-06T18:35:25.340Z,9.87
2022-12-06T18:37:53.973Z,9.30
2022-12-06T18:40:22.637Z,10.07
2022-12-06T18:42:52.415Z,9.77
2022-12-06T18:45:21.026Z,9.83
2022-12-06T18:47:49.405Z,10.10
2022-12-06T18:50:18.151Z,9.57
2022-12-06T18:52:46.498Z,9.90
2022-12-06T18:55:14.837Z,10.27
2022-12-06T18:57:43.764Z,9.73
2022-12-06T19:00:15.417Z,9.13
2022-12-06T19:02:44.058Z,8.37
2022-12-06T19:05:12.697Z,8.90
2022-12-06T19:07:41.038Z,9.13
2022-12-06T19:10:11.106Z,7.83
2022-12-06T19:12:39.373Z,7.67
2022-12-06T19:15:09.329Z,8.20
2022-12-06T19:17:38.978Z,8.20
2022-12-06T19:20:09.302Z,8.60
2022-12-06T19:22:37.816Z,8.60
2022-12-06T19:25:07.090Z,8.47
2022-12-06T19:27:35.964Z,8.63
2022-12-06T19:30:06.224Z,10.10
2022-12-06T19:32:35.294Z,8.73
2022-12-06T19:35:08.507Z,8.57
2022-12-06T19:37:37.345Z,8.60
2022-12-06T19:40:07.051Z,8.67
2022-12-06T19:42:54.369Z,9.23
2022-12-06T19:45:22.894Z,7.70
2022-12-06T19:47:51.266Z,7.80
2022-12-06T19:50:20.917Z,7.87
2022-12-06T19:52:49.225Z,7.13
2022-12-06T19:55:17.776Z,7.83
2022-12-06T19:57:48.564Z,7.67
2022-12-06T20:00:22.665Z,6.93
2022-12-06T20:02:51.435Z,7.97
2022-12-06T20:05:21.202Z,9.80
2022-12-06T20:07:49.867Z,7.43
2022-12-06T20:10:18.348Z,7.20
2022-12-06T20:12:47.555Z,7.00
2022-12-06T20:15:16.161Z,7.40
2022-12-06T20:17:44.537Z,8.97
2022-12-06T20:20:13.040Z,7.83
2022-12-06T20:22:42.913Z,7.17
2022-12-06T20:25:11.428Z,7.17
2022-12-06T20:27:56.739Z,6.90
2022-12-06T20:30:25.248Z,6.63
2022-12-06T20:32:53.997Z,7.20
2022-12-06T20:35:24.058Z,7.20
2022-12-06T20:37:53.734Z,7.47
2022-12-06T20:40:24.513Z,6.83
2022-12-06T20:42:56.713Z,6.83
2022-12-06T20:45:25.159Z,6.60
2022-12-06T20:47:54.319Z,7.03
2022-12-06T20:50:23.389Z,8.67
2022-12-06T20:52:54.083Z,7.97
2022-12-06T20:55:22.724Z,10.27
2022-12-06T20:57:51.388Z,9.00
2022-12-06T21:00:22.387Z,7.70
2022-12-06T21:02:50.811Z,6.77
2022-12-06T21:05:19.369Z,6.40
2022-12-06T21:07:47.755Z,5.80
2022-12-06T21:10:17.876Z,5.57
2022-12-06T21:12:46.472Z,6.53
2022-12-06T21:15:14.760Z,5.43
2022-12-06T21:17:43.188Z,4.90
2022-12-06T21:20:12.831Z,5.57
2022-12-06T21:22:41.476Z,5.70
2022-12-06T21:25:10.682Z,5.83
2022-12-06T21:27:40.490Z,6.00
2022-12-06T21:30:10.583Z,6.17
2022-12-06T21:32:39.256Z,6.03
2022-12-06T21:35:08.778Z,5.33
2022-12-06T21:37:37.122Z,6.17
2022-12-06T21:40:07.031Z,5.80
2022-12-06T21:42:35.385Z,6.00
2022-12-06T21:45:05.886Z,5.63
2022-12-06T21:47:34.340Z,6.20
2022-12-06T21:50:03.623Z,5.70
2022-12-06T21:52:32.421Z,5.57
2022-12-06T21:55:00.804Z,6.10
2022-12-06T21:57:29.279Z,5.63
2022-12-06T21:59:57.604Z,6.00
2022-12-06T22:02:27.759Z,6.23
2022-12-06T22:04:56.360Z,5.93
2022-12-06T22:07:24.885Z,6.37
2022-12-06T22:09:53.211Z,6.27
2022-12-06T22:12:21.571Z,5.93
2022-12-06T22:14:49.925Z,6.13
2022-12-06T22:17:18.293Z,6.67
2022-12-06T22:19:48.632Z,6.13
2022-12-06T22:22:18.169Z,5.70
2022-12-06T22:24:46.842Z,5.93
2022-12-06T22:27:15.472Z,6.33
2022-12-06T22:29:43.852Z,6.87
2022-12-06T22:32:12.316Z,6.43
2022-12-06T22:34:40.719Z,6.83
2022-12-06T22:37:10.463Z,6.47
2022-12-06T22:39:39.096Z,6.63
2022-12-06T22:42:07.797Z,6.20
2022-12-06T22:44:36.420Z,5.50
2022-12-06T22:47:04.963Z,5.63
2022-12-06T22:49:33.598Z,6.90
2022-12-06T22:52:01.913Z,6.47
2022-12-06T22:54:31.963Z,5.87
2022-12-06T22:57:01.743Z,6.27
2022-12-06T22:59:30.408Z,6.33
2022-12-06T23:01:58.834Z,6.17
2022-12-06T23:04:27.229Z,6.00
2022-12-06T23:06:55.622Z,5.93
2022-12-06T23:09:24.301Z,6.00
2022-12-06T23:11:54.116Z,6.20
2022-12-06T23:14:22.529Z,6.00
2022-12-06T23:16:51.110Z,6.13
2022-12-06T23:19:19.831Z,6.13
2022-12-06T23:21:48.222Z,6.20
2022-12-06T23:24:17.007Z,6.50
2022-12-06T23:26:50.708Z,6.20
2022-12-06T23:29:23.034Z,6.03
2022-12-06T23:31:51.540Z,6.07
2022-12-06T23:34:23.221Z,6.37
2022-12-06T23:36:51.709Z,6.30
2022-12-06T23:39:20.717Z,6.03
2022-12-06T23:41:49.604Z,6.80
2022-12-06T23:44:18.244Z,6.07
2022-12-06T23:46:48.179Z,6.40
2022-12-06T23:49:19.291Z,6.30
2022-12-06T23:51:48.846Z,6.50
2022-12-06T23:54:18.908Z,6.33
2022-12-06T23:56:48.324Z,5.80
2022-12-06T23:59:18.684Z,6.43
